Gordonsville, Virginia
Current Conditions -  °F | °C
As of 8:15 AM on Friday 28 Nov 2014 (Local Time) from KGVE Reporting Station
Clear Clear  
Wind Chill: -3°   Ceiling: Unl
Heat Index:   Visibility: 10mi
Dew Point: -7°   Wind: 7mph
Humidity: 58%   Direction: 310°NW
Pressure: 30.31"   Gusts: NA
Location:  38.14°N, 78.19°W
Report Text: KGVE 281315Z AUTO 31006KT 10SM CLR 01/M07 A3031 RMK AO1 T00051070
Loading
Personal Weather Stations






























Interactive Weather Map New forecast layout! Learn more

10-Day Weather Forecast

Advertisements
Track Severe Weather on mobile